AAL3186 KPHX-KABQ
Flight info
| Callsign | AAL3186 |
|---|---|
| Flight time | 0h 45m |
| Altitude | 35000 |
| Route | FORPE1 SJN TMALE BRRTO1 |
| Aircraft | A20N/M-SDE2E3FGHIRWXY/LB1 |
Departure
| Time | 2026-05-04 22:01 |
|---|---|
| Airport | Phoenix Sky Harbor International Airport (KPHX) |
Arrival
| Time | 2026-05-04 22:46 |
|---|---|
| Airport | Albuquerque International Sunport (KABQ) |
| Time | Latitude | Longitude | Altitude | Speed | Heading |
|---|---|---|---|---|---|
| 2026-05-04 21:43 | 33.43724 | -112.00119 | 1124 ft | 0 kts | 270° |
| 2026-05-04 21:51 | 33.43723 | -112.00108 | 1112 ft | 2 kts | 280° |
| 2026-05-04 21:52 | 33.43720 | -112.00090 | 1109 ft | 2 kts | 295° |
| 2026-05-04 21:52 | 33.43712 | -112.00075 | 1111 ft | 2 kts | 320° |
| 2026-05-04 21:52 | 33.43699 | -112.00067 | 1121 ft | 2 kts | 12° |
| 2026-05-04 21:52 | 33.43685 | -112.00073 | 1116 ft | 2 kts | 19° |
| 2026-05-04 21:53 | 33.43676 | -112.00076 | 1115 ft | 1 kts | 12° |
| 2026-05-04 21:53 | 33.43682 | -112.00075 | 1117 ft | 1 kts | 9° |
| 2026-05-04 21:53 | 33.43688 | -112.00075 | 1115 ft | 0 kts | 2° |
| 2026-05-04 21:56 | 33.43691 | -112.00075 | 1124 ft | 2 kts | 2° |
| 2026-05-04 21:56 | 33.43725 | -112.00074 | 1120 ft | 7 kts | 359° |
| 2026-05-04 21:56 | 33.43793 | -112.00076 | 1110 ft | 12 kts | 359° |
| 2026-05-04 21:56 | 33.43888 | -112.00081 | 1122 ft | 14 kts | 341° |
| 2026-05-04 21:57 | 33.43904 | -112.00192 | 1125 ft | 15 kts | 269° |
| 2026-05-04 21:57 | 33.43903 | -112.00322 | 1125 ft | 18 kts | 269° |
| 2026-05-04 21:57 | 33.43806 | -112.00379 | 1120 ft | 20 kts | 180° |
| 2026-05-04 21:57 | 33.43657 | -112.00381 | 1119 ft | 23 kts | 181° |
| 2026-05-04 21:58 | 33.43487 | -112.00380 | 1115 ft | 25 kts | 183° |
| 2026-05-04 21:58 | 33.43303 | -112.00381 | 1118 ft | 25 kts | 179° |
| 2026-05-04 21:58 | 33.43228 | -112.00372 | 1119 ft | 11 kts | 151° |
| 2026-05-04 21:58 | 33.43214 | -112.00271 | 1120 ft | 15 kts | 90° |
| 2026-05-04 21:59 | 33.43214 | -112.00129 | 1120 ft | 19 kts | 90° |
| 2026-05-04 21:59 | 33.43214 | -111.99947 | 1123 ft | 24 kts | 90° |
| 2026-05-04 21:59 | 33.43214 | -111.99740 | 1122 ft | 21 kts | 91° |
| 2026-05-04 21:59 | 33.43213 | -111.99591 | 1124 ft | 18 kts | 90° |
| 2026-05-04 22:00 | 33.43165 | -111.99489 | 1136 ft | 14 kts | 162° |
| 2026-05-04 22:00 | 33.43103 | -111.99535 | 1134 ft | 12 kts | 271° |
| 2026-05-04 22:00 | 33.43104 | -111.99574 | 1133 ft | 16 kts | 272° |
| 2026-05-04 22:00 | 33.43102 | -111.99997 | 1135 ft | 89 kts | 271° |
| 2026-05-04 22:01 | 33.43104 | -112.01025 | 1175 ft | 151 kts | 270° |
| 2026-05-04 22:01 | 33.43118 | -112.02161 | 1635 ft | 163 kts | 272° |
| 2026-05-04 22:01 | 33.43191 | -112.03557 | 2236 ft | 174 kts | 272° |
| 2026-05-04 22:01 | 33.43194 | -112.05085 | 2714 ft | 192 kts | 273° |
| 2026-05-04 22:02 | 33.43317 | -112.06792 | 3144 ft | 219 kts | 271° |
| 2026-05-04 22:02 | 33.43294 | -112.08675 | 3870 ft | 230 kts | 268° |
| 2026-05-04 22:02 | 33.43291 | -112.10612 | 4802 ft | 234 kts | 269° |
| 2026-05-04 22:02 | 33.43327 | -112.12604 | 5607 ft | 245 kts | 269° |
| 2026-05-04 22:03 | 33.43384 | -112.14638 | 6616 ft | 241 kts | 269° |
| 2026-05-04 22:03 | 33.43565 | -112.16633 | 7615 ft | 245 kts | 283° |
| 2026-05-04 22:03 | 33.44438 | -112.18422 | 8515 ft | 258 kts | 309° |
| 2026-05-04 22:03 | 33.46008 | -112.19589 | 9395 ft | 277 kts | 336° |
| 2026-05-04 22:04 | 33.47973 | -112.19893 | 10167 ft | 293 kts | 354° |
| 2026-05-04 22:04 | 33.49990 | -112.19834 | 11021 ft | 294 kts | 357° |
| 2026-05-04 22:04 | 33.52047 | -112.19708 | 11883 ft | 297 kts | 358° |
| 2026-05-04 22:04 | 33.54117 | -112.19316 | 12709 ft | 305 kts | 10° |
| 2026-05-04 22:05 | 33.56212 | -112.18650 | 13250 ft | 321 kts | 9° |
| 2026-05-04 22:05 | 33.58454 | -112.17976 | 13516 ft | 344 kts | 9° |
| 2026-05-04 22:05 | 33.60805 | -112.16991 | 13790 ft | 372 kts | 24° |
| 2026-05-04 22:05 | 33.63012 | -112.15194 | 14100 ft | 394 kts | 41° |
| 2026-05-04 22:06 | 33.64910 | -112.12808 | 14739 ft | 399 kts | 45° |
| 2026-05-04 22:06 | 33.66789 | -112.10395 | 15494 ft | 401 kts | 44° |
| 2026-05-04 22:06 | 33.68721 | -112.07929 | 16165 ft | 406 kts | 44° |
| 2026-05-04 22:06 | 33.70665 | -112.05454 | 16826 ft | 410 kts | 43° |
| 2026-05-04 22:07 | 33.72619 | -112.02935 | 17465 ft | 418 kts | 47° |
| 2026-05-04 22:07 | 33.74176 | -111.99926 | 18030 ft | 429 kts | 66° |
| 2026-05-04 22:07 | 33.74969 | -111.96459 | 18599 ft | 434 kts | 84° |
| 2026-05-04 22:07 | 33.74966 | -111.92897 | 19123 ft | 436 kts | 99° |
| 2026-05-04 22:08 | 33.74513 | -111.89333 | 19675 ft | 438 kts | 103° |
| 2026-05-04 22:08 | 33.73992 | -111.85691 | 20335 ft | 440 kts | 103° |
| 2026-05-04 22:08 | 33.73540 | -111.82037 | 20892 ft | 445 kts | 102° |
| 2026-05-04 22:08 | 33.73163 | -111.78382 | 21418 ft | 450 kts | 101° |
| 2026-05-04 22:09 | 33.72927 | -111.75831 | 21660 ft | 455 kts | 101° |
| 2026-05-04 22:09 | 33.72497 | -111.70791 | 22434 ft | 459 kts | 101° |
| 2026-05-04 22:09 | 33.72179 | -111.66960 | 22975 ft | 462 kts | 102° |
| 2026-05-04 22:09 | 33.71858 | -111.63105 | 23500 ft | 465 kts | 102° |
| 2026-05-04 22:10 | 33.71533 | -111.59231 | 23901 ft | 469 kts | 102° |
| 2026-05-04 22:10 | 33.71201 | -111.55308 | 24281 ft | 474 kts | 102° |
| 2026-05-04 22:10 | 33.70862 | -111.51353 | 24655 ft | 479 kts | 102° |
| 2026-05-04 22:10 | 33.70516 | -111.47346 | 25027 ft | 483 kts | 102° |
| 2026-05-04 22:11 | 33.70171 | -111.43358 | 25427 ft | 487 kts | 102° |
| 2026-05-04 22:11 | 33.69818 | -111.39289 | 25803 ft | 491 kts | 102° |
| 2026-05-04 22:11 | 33.69461 | -111.35184 | 26165 ft | 496 kts | 102° |
| 2026-05-04 22:11 | 33.69134 | -111.31036 | 26502 ft | 503 kts | 97° |
| 2026-05-04 22:12 | 33.69320 | -111.26792 | 26694 ft | 516 kts | 84° |
| 2026-05-04 22:12 | 33.70227 | -111.22581 | 27085 ft | 523 kts | 71° |
| 2026-05-04 22:12 | 33.71628 | -111.18533 | 27428 ft | 527 kts | 67° |
| 2026-05-04 22:12 | 33.73100 | -111.14484 | 27779 ft | 531 kts | 67° |
| 2026-05-04 22:13 | 33.74584 | -111.10403 | 28112 ft | 534 kts | 67° |
| 2026-05-04 22:13 | 33.76067 | -111.06295 | 28461 ft | 538 kts | 67° |
| 2026-05-04 22:13 | 33.77548 | -111.02161 | 28797 ft | 541 kts | 67° |
| 2026-05-04 22:13 | 33.79017 | -110.98038 | 29092 ft | 545 kts | 67° |
| 2026-05-04 22:14 | 33.80511 | -110.93830 | 29414 ft | 548 kts | 67° |
| 2026-05-04 22:14 | 33.82012 | -110.89595 | 29716 ft | 551 kts | 67° |
| 2026-05-04 22:14 | 33.83515 | -110.85349 | 30000 ft | 555 kts | 67° |
| 2026-05-04 22:14 | 33.85032 | -110.81057 | 30273 ft | 558 kts | 67° |
| 2026-05-04 22:15 | 33.86555 | -110.76737 | 30538 ft | 561 kts | 66° |
| 2026-05-04 22:15 | 33.88056 | -110.72476 | 30783 ft | 564 kts | 66° |
| 2026-05-04 22:15 | 33.89569 | -110.68180 | 31042 ft | 566 kts | 66° |
| 2026-05-04 22:15 | 33.91110 | -110.63796 | 31351 ft | 568 kts | 66° |
| 2026-05-04 22:16 | 33.92650 | -110.59410 | 31677 ft | 568 kts | 66° |
| 2026-05-04 22:16 | 33.94191 | -110.55017 | 32015 ft | 569 kts | 66° |
| 2026-05-04 22:16 | 33.95731 | -110.50623 | 32317 ft | 570 kts | 66° |
| 2026-05-04 22:16 | 33.97273 | -110.46215 | 32566 ft | 571 kts | 66° |
| 2026-05-04 22:17 | 33.98816 | -110.41791 | 32894 ft | 571 kts | 66° |
| 2026-05-04 22:17 | 34.00355 | -110.37377 | 33206 ft | 572 kts | 66° |
| 2026-05-04 22:17 | 34.01899 | -110.32944 | 33523 ft | 572 kts | 66° |
| 2026-05-04 22:17 | 34.03436 | -110.28526 | 33878 ft | 572 kts | 66° |
| 2026-05-04 22:18 | 34.04972 | -110.24104 | 34296 ft | 569 kts | 66° |
| 2026-05-04 22:18 | 34.06481 | -110.19755 | 34602 ft | 568 kts | 66° |
| 2026-05-04 22:18 | 34.08002 | -110.15363 | 34863 ft | 568 kts | 66° |
| 2026-05-04 22:18 | 34.09524 | -110.10962 | 34996 ft | 569 kts | 65° |
| 2026-05-04 22:19 | 34.11043 | -110.06561 | 35010 ft | 568 kts | 65° |
| 2026-05-04 22:19 | 34.14078 | -109.97756 | 35033 ft | 568 kts | 65° |
| 2026-05-04 22:20 | 34.16598 | -109.90428 | 35029 ft | 567 kts | 65° |
| 2026-05-04 22:20 | 34.19622 | -109.81611 | 35004 ft | 568 kts | 66° |
| 2026-05-04 22:21 | 34.22636 | -109.72794 | 34948 ft | 566 kts | 66° |
| 2026-05-04 22:21 | 34.25633 | -109.64005 | 34876 ft | 565 kts | 66° |
| 2026-05-04 22:22 | 34.28621 | -109.55219 | 34905 ft | 563 kts | 66° |
| 2026-05-04 22:22 | 34.31594 | -109.46452 | 34944 ft | 568 kts | 66° |
| 2026-05-04 22:23 | 34.34598 | -109.37567 | 34942 ft | 568 kts | 65° |
| 2026-05-04 22:23 | 34.37588 | -109.28698 | 34921 ft | 568 kts | 66° |
| 2026-05-04 22:24 | 34.40539 | -109.19867 | 34875 ft | 569 kts | 69° |
| 2026-05-04 22:24 | 34.42230 | -109.10497 | 34810 ft | 568 kts | 88° |
| 2026-05-04 22:25 | 34.42217 | -109.01029 | 34814 ft | 566 kts | 94° |
| 2026-05-04 22:25 | 34.42092 | -108.91480 | 34815 ft | 567 kts | 94° |
| 2026-05-04 22:26 | 34.41957 | -108.81934 | 34798 ft | 567 kts | 94° |
| 2026-05-04 22:26 | 34.41814 | -108.72570 | 34787 ft | 563 kts | 94° |
| 2026-05-04 22:27 | 34.42106 | -108.63088 | 34782 ft | 566 kts | 81° |
| 2026-05-04 22:27 | 34.44055 | -108.53857 | 34743 ft | 566 kts | 71° |
| 2026-05-04 22:27 | 34.45198 | -108.49358 | 34446 ft | 565 kts | 71° |
| 2026-05-04 22:28 | 34.46345 | -108.44802 | 33871 ft | 566 kts | 71° |
| 2026-05-04 22:28 | 34.47493 | -108.40224 | 33091 ft | 567 kts | 71° |
| 2026-05-04 22:28 | 34.48641 | -108.35637 | 32323 ft | 568 kts | 71° |
| 2026-05-04 22:28 | 34.49792 | -108.31032 | 31518 ft | 568 kts | 72° |
| 2026-05-04 22:29 | 34.50939 | -108.26440 | 30708 ft | 569 kts | 72° |
| 2026-05-04 22:29 | 34.52086 | -108.21837 | 29878 ft | 570 kts | 72° |
| 2026-05-04 22:29 | 34.53231 | -108.17236 | 28924 ft | 570 kts | 72° |
| 2026-05-04 22:29 | 34.54373 | -108.12640 | 28209 ft | 565 kts | 72° |
| 2026-05-04 22:30 | 34.55487 | -108.08148 | 27588 ft | 558 kts | 72° |
| 2026-05-04 22:30 | 34.56598 | -108.03663 | 26964 ft | 552 kts | 72° |
| 2026-05-04 22:30 | 34.57695 | -107.99224 | 26357 ft | 546 kts | 72° |
| 2026-05-04 22:30 | 34.58780 | -107.94827 | 25921 ft | 536 kts | 72° |
| 2026-05-04 22:31 | 34.59831 | -107.90561 | 25738 ft | 521 kts | 73° |
| 2026-05-04 22:31 | 34.60853 | -107.86402 | 25573 ft | 506 kts | 73° |
| 2026-05-04 22:31 | 34.61854 | -107.82358 | 25415 ft | 492 kts | 70° |
| 2026-05-04 22:31 | 34.63146 | -107.78564 | 25056 ft | 482 kts | 60° |
| 2026-05-04 22:32 | 34.64705 | -107.74976 | 24572 ft | 478 kts | 59° |
| 2026-05-04 22:32 | 34.66249 | -107.71424 | 24146 ft | 473 kts | 59° |
| 2026-05-04 22:32 | 34.67776 | -107.67898 | 23689 ft | 470 kts | 59° |
| 2026-05-04 22:32 | 34.69291 | -107.64391 | 23227 ft | 466 kts | 60° |
| 2026-05-04 22:33 | 34.70783 | -107.60926 | 22780 ft | 460 kts | 60° |
| 2026-05-04 22:33 | 34.72256 | -107.57496 | 22213 ft | 452 kts | 60° |
| 2026-05-04 22:33 | 34.73673 | -107.54193 | 21659 ft | 445 kts | 59° |
| 2026-05-04 22:33 | 34.75109 | -107.50841 | 21105 ft | 437 kts | 59° |
| 2026-05-04 22:34 | 34.76488 | -107.47625 | 20546 ft | 430 kts | 59° |
| 2026-05-04 22:34 | 34.77863 | -107.44412 | 19980 ft | 423 kts | 59° |
| 2026-05-04 22:34 | 34.79211 | -107.41258 | 19441 ft | 416 kts | 59° |
| 2026-05-04 22:34 | 34.80537 | -107.38154 | 18988 ft | 407 kts | 59° |
| 2026-05-04 22:35 | 34.81830 | -107.35125 | 18522 ft | 399 kts | 59° |
| 2026-05-04 22:35 | 34.83087 | -107.32180 | 18029 ft | 392 kts | 58° |
| 2026-05-04 22:35 | 34.84338 | -107.29248 | 17394 ft | 388 kts | 59° |
| 2026-05-04 22:35 | 34.85569 | -107.26342 | 16751 ft | 384 kts | 59° |
| 2026-05-04 22:36 | 34.86766 | -107.23458 | 16094 ft | 379 kts | 60° |
| 2026-05-04 22:36 | 34.87936 | -107.20613 | 15679 ft | 367 kts | 60° |
| 2026-05-04 22:36 | 34.89009 | -107.17991 | 15391 ft | 353 kts | 62° |
| 2026-05-04 22:36 | 34.89885 | -107.15212 | 14905 ft | 349 kts | 73° |
| 2026-05-04 22:37 | 34.90340 | -107.12326 | 14443 ft | 343 kts | 82° |
| 2026-05-04 22:37 | 34.90658 | -107.09482 | 14080 ft | 334 kts | 81° |
| 2026-05-04 22:37 | 34.90992 | -107.06683 | 13696 ft | 333 kts | 81° |
| 2026-05-04 22:37 | 34.91332 | -107.03890 | 13312 ft | 332 kts | 82° |
| 2026-05-04 22:38 | 34.91669 | -107.01118 | 12931 ft | 330 kts | 82° |
| 2026-05-04 22:38 | 34.92001 | -106.98348 | 12556 ft | 328 kts | 82° |
| 2026-05-04 22:38 | 34.92327 | -106.95603 | 12183 ft | 326 kts | 82° |
| 2026-05-04 22:38 | 34.92641 | -106.92947 | 11819 ft | 324 kts | 82° |
| 2026-05-04 22:39 | 34.92958 | -106.90263 | 11458 ft | 322 kts | 82° |
| 2026-05-04 22:39 | 34.93277 | -106.87565 | 11087 ft | 320 kts | 82° |
| 2026-05-04 22:39 | 34.93593 | -106.84875 | 10863 ft | 318 kts | 82° |
| 2026-05-04 22:39 | 34.93904 | -106.82222 | 10484 ft | 316 kts | 82° |
| 2026-05-04 22:40 | 34.94214 | -106.79568 | 10137 ft | 314 kts | 82° |
| 2026-05-04 22:40 | 34.94519 | -106.76963 | 9978 ft | 305 kts | 82° |
| 2026-05-04 22:40 | 34.94812 | -106.74452 | 9944 ft | 292 kts | 82° |
| 2026-05-04 22:40 | 34.95088 | -106.72081 | 9954 ft | 275 kts | 82° |
| 2026-05-04 22:41 | 34.95269 | -106.69843 | 9993 ft | 261 kts | 89° |
| 2026-05-04 22:41 | 34.95338 | -106.67647 | 9893 ft | 254 kts | 89° |
| 2026-05-04 22:41 | 34.95410 | -106.65543 | 9806 ft | 242 kts | 89° |
| 2026-05-04 22:41 | 34.95475 | -106.63561 | 9654 ft | 228 kts | 90° |
| 2026-05-04 22:42 | 34.95513 | -106.61641 | 9130 ft | 226 kts | 90° |
| 2026-05-04 22:42 | 34.95541 | -106.59739 | 8657 ft | 220 kts | 90° |
| 2026-05-04 22:42 | 34.95594 | -106.57946 | 8487 ft | 203 kts | 84° |
| 2026-05-04 22:42 | 34.95904 | -106.56345 | 8217 ft | 193 kts | 69° |
| 2026-05-04 22:43 | 34.96512 | -106.54872 | 7719 ft | 197 kts | 54° |
| 2026-05-04 22:43 | 34.97380 | -106.53636 | 7460 ft | 184 kts | 40° |
| 2026-05-04 22:43 | 34.98408 | -106.52699 | 7396 ft | 188 kts | 26° |
| 2026-05-04 22:43 | 34.99580 | -106.51896 | 7329 ft | 195 kts | 25° |
| 2026-05-04 22:44 | 35.00748 | -106.51082 | 7168 ft | 190 kts | 24° |
| 2026-05-04 22:44 | 35.01970 | -106.50712 | 6899 ft | 180 kts | 351° |
| 2026-05-04 22:44 | 35.03108 | -106.51091 | 6680 ft | 163 kts | 324° |
| 2026-05-04 22:44 | 35.03953 | -106.52047 | 6512 ft | 166 kts | 300° |
| 2026-05-04 22:45 | 35.04351 | -106.53322 | 6318 ft | 156 kts | 274° |
| 2026-05-04 22:45 | 35.04372 | -106.55896 | 5669 ft | 149 kts | 268° |
| 2026-05-04 22:45 | 35.04395 | -106.57179 | 5447 ft | 156 kts | 271° |
| 2026-05-04 22:46 | 35.04411 | -106.58574 | 5337 ft | 161 kts | 270° |
| 2026-05-04 22:46 | 35.04418 | -106.59778 | 5320 ft | 119 kts | 270° |
| 2026-05-04 22:46 | 35.04428 | -106.60532 | 5315 ft | 60 kts | 270° |
| 2026-05-04 22:46 | 35.04427 | -106.60912 | 5317 ft | 27 kts | 271° |
| 2026-05-04 22:47 | 35.04430 | -106.61112 | 5316 ft | 23 kts | 271° |
| 2026-05-04 22:47 | 35.04432 | -106.61301 | 5319 ft | 22 kts | 271° |
| 2026-05-04 22:47 | 35.04434 | -106.61487 | 5319 ft | 22 kts | 270° |
| 2026-05-04 22:47 | 35.04436 | -106.61659 | 5320 ft | 18 kts | 277° |
| 2026-05-04 22:48 | 35.04524 | -106.61730 | 5319 ft | 15 kts | 3° |
| 2026-05-04 22:48 | 35.04608 | -106.61714 | 5313 ft | 12 kts | 13° |
| 2026-05-04 22:48 | 35.04670 | -106.61694 | 5317 ft | 5 kts | 9° |
| 2026-05-04 22:48 | 35.04686 | -106.61691 | 5318 ft | 5 kts | 11° |
| 2026-05-04 22:49 | 35.04697 | -106.61688 | 5314 ft | 0 kts | 13° |